Startpagina
METAR-TAF:

METAR-TAF

Vliegvelden :

Vilanculos, Mozambique

breedte: 22-00S, lengte: 035-19E, hoogte: 20 m

Actueel weer

Dit bericht is 6 uur en het 58 minuten geleden gemaakt, om 11:00 UTC
Wind 9 kt uit het oosten
Temperatuur 30°C
Vochtigheid 66%
Druk 1011 hPa
Zicht 10 km of meer
Verspreide wolken op 2000 ft

METAR: FQVL 231100Z 10009KT 9999 SCT020 30/23 Q1011

Tijdstip: 19:58 (17:58 UTC)

Verwachting

Dit bericht is 7 uur en het 58 minuten geleden gemaakt, om 10:00 UTC
Verwachting geldig van 23 om 12 UTC tot 24 om 12 UTC
Wind 12 kt uit het oostzuidoosten
Zicht 10 km of meer
Verspreide wolken op 2000 ft

TAF: FQVL 231000Z 2312/2412 12012KT 9999 SCT020 TX30/2313Z TN24/2403Z CHECK TEXT NEW ENDING ADDED LFLFYFYX

Waarnemingen en weersverwachtingen van meer dan 4000 vliegvelden (METAR en TAF).

De beschikbare stations zijn de gele en rode punten op de kaart.

Ga met uw muis naar het station om de naam te zien.

Klik dan om waarnemingen en weersverwachtingen te zien.

kaart wijzigen: klik op de groene knoppen met een zwart kruis om in te zoomen, op de groene knop met een streepje om uit te zoomen of op de groene pijlen voor aangrenzende kaarten.


METAR-TAF: